createdAt,value
2023-01-23T00:00:27.756Z,101809.00
2023-01-23T00:02:55.849Z,101820.00
2023-01-23T00:05:23.167Z,101820.00
2023-01-23T00:07:50.403Z,101820.00
2023-01-23T00:10:18.634Z,101816.00
2023-01-23T00:12:48.321Z,101818.00
2023-01-23T00:15:16.184Z,101816.00
2023-01-23T00:17:44.776Z,101810.00
2023-01-23T00:20:13.056Z,101822.00
2023-01-23T00:22:40.458Z,101815.00
2023-01-23T00:25:08.194Z,101809.00
2023-01-23T00:27:35.494Z,101817.00
2023-01-23T00:30:02.961Z,101828.00
2023-01-23T00:32:30.201Z,101814.00
2023-01-23T00:34:58.094Z,101826.00
2023-01-23T00:37:25.345Z,101822.00
2023-01-23T00:39:52.566Z,101823.00
2023-01-23T00:42:19.849Z,101817.00
2023-01-23T00:44:47.072Z,101823.00
2023-01-23T00:47:14.320Z,101833.00
2023-01-23T00:49:41.548Z,101835.00
2023-01-23T00:52:09.621Z,101833.00
2023-01-23T00:54:38.642Z,101831.00
2023-01-23T00:57:06.040Z,101833.00
2023-01-23T00:59:33.256Z,101834.00
2023-01-23T01:02:00.555Z,101840.00
2023-01-23T01:04:27.867Z,101842.00
2023-01-23T01:06:55.417Z,101843.00
2023-01-23T01:09:24.144Z,101854.00
2023-01-23T01:11:51.481Z,101847.00
2023-01-23T01:14:18.755Z,101855.00
2023-01-23T01:16:46.058Z,101849.00
2023-01-23T01:19:13.870Z,101854.00
2023-01-23T01:21:41.688Z,101855.00
2023-01-23T01:24:09.527Z,101861.00
2023-01-23T01:26:37.479Z,101865.00
2023-01-23T01:29:04.896Z,101874.00
2023-01-23T01:31:32.240Z,101878.00
2023-01-23T01:33:59.584Z,101886.00
2023-01-23T01:36:26.829Z,101887.00
2023-01-23T01:38:54.081Z,101895.00
2023-01-23T01:41:21.411Z,101890.00
2023-01-23T01:43:50.441Z,101890.00
2023-01-23T01:46:21.052Z,101890.00
2023-01-23T01:48:55.079Z,101886.00
2023-01-23T01:51:32.897Z,101880.00
2023-01-23T01:54:07.187Z,101887.00
2023-01-23T01:56:39.487Z,101883.00
2023-01-23T01:59:08.763Z,101889.00
2023-01-23T02:01:36.297Z,101894.00
2023-01-23T02:04:03.946Z,101905.00
2023-01-23T02:06:31.336Z,101900.00
2023-01-23T02:09:03.764Z,101908.00
2023-01-23T02:11:31.194Z,101908.00
2023-01-23T02:13:58.482Z,101901.00
2023-01-23T02:16:30.562Z,101916.00
2023-01-23T02:19:01.797Z,101911.00
2023-01-23T02:21:29.102Z,101910.00
2023-01-23T02:24:11.216Z,101915.00
2023-01-23T02:26:41.778Z,101909.00
2023-01-23T02:29:09.519Z,101911.00
2023-01-23T02:31:37.165Z,101924.00
2023-01-23T02:34:05.029Z,101913.00
2023-01-23T02:36:34.634Z,101910.00
2023-01-23T02:39:06.663Z,101918.00
2023-01-23T02:41:36.348Z,101912.00
2023-01-23T02:44:10.740Z,101917.00
2023-01-23T02:46:38.016Z,101918.00
2023-01-23T02:49:05.328Z,101917.00
2023-01-23T02:51:32.579Z,101920.00
2023-01-23T02:53:59.822Z,101922.00
2023-01-23T02:56:27.174Z,101934.00
2023-01-23T02:59:26.805Z,101937.00
2023-01-23T03:01:54.963Z,101930.00
2023-01-23T03:04:22.564Z,101933.00
2023-01-23T03:06:50.188Z,101933.00
2023-01-23T03:09:18.454Z,101932.00
2023-01-23T03:11:46.892Z,101934.00
2023-01-23T03:14:16.181Z,101930.00
2023-01-23T03:16:46.328Z,101924.00
2023-01-23T03:19:14.274Z,101923.00
2023-01-23T03:21:41.758Z,101920.00
2023-01-23T03:24:10.643Z,101913.00
2023-01-23T03:26:39.053Z,101920.00
2023-01-23T03:29:24.511Z,101911.00
2023-01-23T03:31:51.960Z,101921.00
2023-01-23T03:34:21.523Z,101918.00
2023-01-23T03:36:48.735Z,101916.00
2023-01-23T03:39:34.175Z,101910.00
2023-01-23T03:42:01.448Z,101916.00
2023-01-23T03:44:28.729Z,101911.00
2023-01-23T03:46:56.127Z,101912.00
2023-01-23T03:49:24.080Z,101918.00
2023-01-23T03:51:51.279Z,101909.00
2023-01-23T03:54:18.574Z,101922.00
2023-01-23T03:56:45.803Z,101930.00
2023-01-23T03:59:13.058Z,101928.00
2023-01-23T04:01:41.766Z,101936.00
2023-01-23T04:04:09.079Z,101935.00
2023-01-23T04:06:36.965Z,101936.00
2023-01-23T04:09:04.447Z,101938.00
2023-01-23T04:11:31.968Z,101944.00
2023-01-23T04:13:59.236Z,101948.00
2023-01-23T04:16:27.979Z,101963.00
2023-01-23T04:18:55.335Z,101956.00
2023-01-23T04:21:23.389Z,101955.00
2023-01-23T04:23:51.387Z,101960.00
2023-01-23T04:26:18.731Z,101959.00
2023-01-23T04:28:46.016Z,101962.00
2023-01-23T04:31:13.309Z,101961.00
2023-01-23T04:33:40.705Z,101957.00
2023-01-23T04:36:08.560Z,101966.00
2023-01-23T04:38:35.935Z,101961.00
2023-01-23T04:41:04.485Z,101963.00
2023-01-23T04:43:31.937Z,101959.00
2023-01-23T04:45:59.445Z,101969.00
2023-01-23T04:48:26.736Z,101981.00
2023-01-23T04:50:54.044Z,101977.00
2023-01-23T04:53:21.344Z,101986.00
2023-01-23T04:55:48.979Z,101987.00
2023-01-23T04:58:17.943Z,101984.00
2023-01-23T05:00:45.758Z,101989.00
2023-01-23T05:03:13.273Z,101988.00
2023-01-23T05:05:42.065Z,102001.00
2023-01-23T05:08:09.462Z,101991.00
2023-01-23T05:10:36.789Z,101987.00
2023-01-23T05:13:04.492Z,101994.00
2023-01-23T05:15:32.479Z,101985.00
2023-01-23T05:17:59.850Z,101981.00
2023-01-23T05:20:27.164Z,101984.00
2023-01-23T05:22:54.424Z,101976.00
2023-01-23T05:25:23.839Z,101979.00
2023-01-23T05:27:51.314Z,101988.00
2023-01-23T05:30:20.724Z,101986.00
2023-01-23T05:32:49.036Z,101995.00
2023-01-23T05:35:16.785Z,101994.00
2023-01-23T05:37:47.569Z,101999.00
2023-01-23T05:40:14.875Z,102004.00
2023-01-23T05:42:42.167Z,102006.00
2023-01-23T05:45:10.255Z,101997.00
2023-01-23T05:47:38.000Z,102006.00
2023-01-23T05:50:07.353Z,102007.00
2023-01-23T05:52:34.677Z,102011.00
2023-01-23T05:55:01.973Z,102006.00
2023-01-23T05:57:29.235Z,102006.00
2023-01-23T05:59:56.470Z,102012.00
2023-01-23T06:02:23.790Z,102011.00
2023-01-23T06:04:51.063Z,102011.00
2023-01-23T06:07:20.014Z,102011.00
2023-01-23T06:09:47.340Z,102020.00
2023-01-23T06:12:14.728Z,102019.00
2023-01-23T06:14:42.082Z,102020.00
2023-01-23T06:17:11.175Z,102027.00
2023-01-23T06:19:38.518Z,102029.00
2023-01-23T06:22:05.864Z,102023.00
2023-01-23T06:24:33.989Z,102032.00
2023-01-23T06:27:03.218Z,102029.00
2023-01-23T06:29:33.007Z,102037.00
2023-01-23T06:32:00.264Z,102032.00
2023-01-23T06:34:27.715Z,102034.00
2023-01-23T06:36:54.957Z,102036.00
2023-01-23T06:39:22.417Z,102036.00
2023-01-23T06:41:50.292Z,102039.00
2023-01-23T06:44:17.485Z,102032.00
2023-01-23T06:46:44.731Z,102045.00
2023-01-23T06:49:11.977Z,102045.00
2023-01-23T06:51:39.335Z,102042.00
2023-01-23T06:54:06.851Z,102041.00
2023-01-23T06:56:34.099Z,102045.00
2023-01-23T06:59:02.081Z,102045.00
2023-01-23T07:01:29.555Z,102060.00
2023-01-23T07:03:57.079Z,102062.00
2023-01-23T07:06:24.420Z,102057.00
2023-01-23T07:08:51.769Z,102070.00
2023-01-23T07:11:19.143Z,102077.00
2023-01-23T07:13:46.383Z,102078.00
2023-01-23T07:16:14.335Z,102079.00
2023-01-23T07:18:41.616Z,102084.00
2023-01-23T07:21:09.033Z,102085.00
2023-01-23T07:23:36.432Z,102085.00
2023-01-23T07:26:08.745Z,102095.00
2023-01-23T07:28:36.417Z,102104.00
2023-01-23T07:31:04.549Z,102107.00
2023-01-23T07:33:32.901Z,102117.00
2023-01-23T07:36:00.453Z,102117.00
2023-01-23T07:38:27.795Z,102122.00
2023-01-23T07:40:58.782Z,102137.00
2023-01-23T07:43:26.714Z,102144.00
2023-01-23T07:45:54.259Z,102141.00
2023-01-23T07:48:21.504Z,102152.00
2023-01-23T07:50:49.540Z,102149.00
2023-01-23T07:53:16.884Z,102153.00
2023-01-23T07:55:44.665Z,102154.00
2023-01-23T07:58:11.970Z,102153.00
2023-01-23T08:00:41.135Z,102157.00
2023-01-23T08:03:08.412Z,102154.00
2023-01-23T08:05:35.677Z,102166.00
2023-01-23T08:08:13.129Z,102148.00
2023-01-23T08:10:41.253Z,102162.00
2023-01-23T08:13:08.882Z,102164.00
2023-01-23T08:15:37.930Z,102153.00
2023-01-23T08:18:05.401Z,102159.00
2023-01-23T08:20:32.819Z,102157.00
2023-01-23T08:23:01.508Z,102166.00
2023-01-23T08:25:29.506Z,102173.00
2023-01-23T08:27:57.144Z,102162.00
2023-01-23T08:30:24.473Z,102164.00
2023-01-23T08:32:51.854Z,102177.00
2023-01-23T08:35:19.495Z,102176.00
2023-01-23T08:37:47.281Z,102169.00
2023-01-23T08:40:14.873Z,102171.00
2023-01-23T08:42:42.891Z,102176.00
2023-01-23T08:45:10.790Z,102170.00
2023-01-23T08:47:38.303Z,102175.00
2023-01-23T08:50:07.120Z,102178.00
2023-01-23T08:52:34.617Z,102172.00
2023-01-23T08:55:01.938Z,102165.00
2023-01-23T08:57:29.291Z,102174.00
2023-01-23T08:59:57.479Z,102171.00
2023-01-23T09:02:24.860Z,102178.00
2023-01-23T09:04:52.167Z,102173.00
2023-01-23T09:07:19.409Z,102177.00
2023-01-23T09:09:46.706Z,102187.00
2023-01-23T09:12:14.350Z,102183.00
2023-01-23T09:14:41.846Z,102177.00
2023-01-23T09:17:10.033Z,102188.00
2023-01-23T09:19:37.296Z,102189.00
2023-01-23T09:22:04.556Z,102190.00
2023-01-23T09:24:32.047Z,102191.00
2023-01-23T09:26:59.304Z,102193.00
2023-01-23T09:29:26.706Z,102198.00
2023-01-23T09:31:54.056Z,102193.00
2023-01-23T09:34:22.051Z,102192.00
2023-01-23T09:36:49.385Z,102197.00
2023-01-23T09:39:16.708Z,102195.00
2023-01-23T09:41:45.655Z,102195.00
2023-01-23T09:44:18.270Z,102200.00
2023-01-23T09:46:51.040Z,102208.00
2023-01-23T09:49:25.451Z,102193.00
2023-01-23T09:51:58.088Z,102184.00
2023-01-23T09:54:40.055Z,102188.00
2023-01-23T09:57:14.429Z,102177.00
2023-01-23T09:59:58.787Z,102189.00
2023-01-23T10:02:28.740Z,102181.00
2023-01-23T10:04:58.995Z,102189.00
2023-01-23T10:07:48.617Z,102176.00
2023-01-23T10:10:33.796Z,102177.00
2023-01-23T10:13:08.426Z,102180.00
2023-01-23T10:15:48.898Z,102180.00
2023-01-23T10:18:22.806Z,102176.00
2023-01-23T10:21:04.402Z,102162.00
2023-01-23T10:23:45.041Z,102159.00
2023-01-23T10:26:18.266Z,102154.00
2023-01-23T10:28:47.282Z,102154.00
2023-01-23T10:31:24.604Z,102164.00
2023-01-23T10:33:59.492Z,102159.00
2023-01-23T10:36:47.685Z,102166.00
2023-01-23T10:39:20.159Z,102173.00
2023-01-23T10:41:51.214Z,102180.00
2023-01-23T10:44:20.224Z,102175.00
2023-01-23T10:46:50.878Z,102171.00
2023-01-23T10:49:29.866Z,102176.00
2023-01-23T10:51:58.029Z,102174.00
2023-01-23T10:54:32.292Z,102171.00
2023-01-23T10:57:03.937Z,102164.00
2023-01-23T10:59:36.968Z,102158.00
2023-01-23T11:02:21.672Z,102159.00
2023-01-23T11:04:51.423Z,102158.00
2023-01-23T11:07:22.342Z,102157.00
2023-01-23T11:09:53.797Z,102159.00
2023-01-23T11:12:23.952Z,102167.00
2023-01-23T11:14:52.109Z,102169.00
2023-01-23T11:17:24.175Z,102166.00
2023-01-23T11:19:53.779Z,102166.00
2023-01-23T11:22:31.325Z,102158.00
2023-01-23T11:24:59.311Z,102157.00
2023-01-23T11:27:29.175Z,102163.00
2023-01-23T11:30:21.415Z,102161.00
2023-01-23T11:32:54.963Z,102163.00
2023-01-23T11:35:29.842Z,102152.00
2023-01-23T11:38:01.291Z,102161.00
2023-01-23T11:40:28.785Z,102160.00
2023-01-23T11:42:56.388Z,102153.00
2023-01-23T11:45:38.498Z,102159.00
2023-01-23T11:48:32.531Z,102147.00
2023-01-23T11:51:10.761Z,102156.00
2023-01-23T11:53:44.526Z,102155.00
2023-01-23T11:56:30.704Z,102148.00
2023-01-23T11:59:19.664Z,102141.00
2023-01-23T12:05:13.266Z,102144.00
2023-01-23T12:07:50.112Z,102146.00
2023-01-23T12:10:23.820Z,102135.00
2023-01-23T12:13:20.538Z,102144.00
2023-01-23T12:15:56.660Z,102150.00
2023-01-23T12:18:41.076Z,102139.00
2023-01-23T12:21:17.153Z,102146.00
2023-01-23T12:24:01.618Z,102141.00
2023-01-23T12:26:31.345Z,102152.00
2023-01-23T12:29:21.464Z,102156.00
2023-01-23T12:32:07.461Z,102155.00
2023-01-23T12:34:49.628Z,102152.00
2023-01-23T12:37:36.631Z,102154.00
2023-01-23T12:40:12.190Z,102150.00
2023-01-23T12:42:47.370Z,102159.00
2023-01-23T12:45:20.926Z,102158.00
2023-01-23T12:47:57.037Z,102147.00
2023-01-23T12:50:29.981Z,102154.00
2023-01-23T12:53:03.200Z,102153.00
2023-01-23T12:55:35.854Z,102162.00
2023-01-23T12:58:09.473Z,102148.00
2023-01-23T13:01:03.388Z,102154.00
2023-01-23T13:03:48.150Z,102152.00
2023-01-23T13:06:26.551Z,102147.00
2023-01-23T13:09:12.441Z,102147.00
2023-01-23T13:11:52.875Z,102147.00
2023-01-23T13:15:03.199Z,102146.00
2023-01-23T13:17:37.581Z,102156.00
2023-01-23T13:20:42.371Z,102149.00
2023-01-23T13:23:30.225Z,102154.00
2023-01-23T13:26:28.125Z,102135.00
2023-01-23T13:28:57.257Z,102148.00
2023-01-23T13:31:39.787Z,102143.00
2023-01-23T13:34:34.780Z,102150.00
2023-01-23T13:37:52.682Z,102152.00
2023-01-23T13:40:24.521Z,102150.00
2023-01-23T13:42:51.825Z,102155.00
2023-01-23T13:45:29.047Z,102151.00
2023-01-23T14:20:38.893Z,102162.00
2023-01-23T14:23:25.708Z,102167.00
2023-01-23T14:25:53.074Z,102157.00
2023-01-23T14:28:20.465Z,102163.00
2023-01-23T14:30:54.977Z,102160.00
2023-01-23T14:33:22.439Z,102171.00
2023-01-23T14:35:50.587Z,102165.00
2023-01-23T14:38:32.366Z,102167.00
2023-01-23T14:41:02.706Z,102169.00
2023-01-23T14:43:32.054Z,102179.00
2023-01-23T14:46:03.343Z,102155.00
2023-01-23T14:48:36.721Z,102175.00
2023-01-23T14:51:14.613Z,102167.00
2023-01-23T14:53:42.694Z,102169.00
2023-01-23T14:56:11.827Z,102177.00
2023-01-23T14:58:39.882Z,102165.00
2023-01-23T15:01:07.402Z,102170.00
2023-01-23T15:03:36.856Z,102167.00
2023-01-23T15:06:08.562Z,102170.00
2023-01-23T15:08:36.358Z,102168.00
2023-01-23T15:11:11.122Z,102171.00
2023-01-23T15:13:44.527Z,102172.00
2023-01-23T15:16:48.191Z,102172.00
2023-01-23T15:19:22.007Z,102172.00
2023-01-23T15:21:49.873Z,102178.00
2023-01-23T15:24:25.147Z,102175.00
2023-01-23T15:27:04.758Z,102168.00
2023-01-23T15:29:33.164Z,102167.00
2023-01-23T15:32:00.869Z,102181.00
2023-01-23T15:34:31.621Z,102178.00
2023-01-23T15:37:05.634Z,102175.00
2023-01-23T15:39:37.349Z,102194.00
2023-01-23T15:42:24.719Z,102187.00
2023-01-23T15:44:52.155Z,102186.00
2023-01-23T15:47:20.145Z,102185.00
2023-01-23T15:49:47.446Z,102191.00
2023-01-23T15:52:20.076Z,102196.00
2023-01-23T15:54:48.698Z,102192.00
2023-01-23T15:57:16.680Z,102186.00
2023-01-23T15:59:43.996Z,102198.00
2023-01-23T16:02:29.630Z,102205.00
2023-01-23T16:04:57.745Z,102213.00
2023-01-23T16:07:30.004Z,102206.00
2023-01-23T16:09:57.430Z,102212.00
2023-01-23T16:12:29.457Z,102216.00
2023-01-23T16:14:57.156Z,102209.00
2023-01-23T16:17:24.457Z,102214.00
2023-01-23T16:19:52.098Z,102214.00
2023-01-23T16:22:25.259Z,102221.00
2023-01-23T16:24:53.148Z,102221.00
2023-01-23T16:27:26.457Z,102212.00
2023-01-23T16:29:54.822Z,102226.00
2023-01-23T16:32:22.252Z,102227.00
2023-01-23T16:34:49.589Z,102228.00
2023-01-23T16:37:18.647Z,102240.00
2023-01-23T16:39:46.968Z,102235.00
2023-01-23T16:42:21.028Z,102235.00
2023-01-23T16:44:48.392Z,102241.00
2023-01-23T16:47:16.356Z,102237.00
2023-01-23T16:49:51.873Z,102236.00
2023-01-23T16:52:23.767Z,102244.00
2023-01-23T16:54:53.597Z,102249.00
2023-01-23T16:57:21.338Z,102243.00
2023-01-23T16:59:51.034Z,102236.00
2023-01-23T17:02:22.604Z,102241.00
2023-01-23T17:04:50.495Z,102244.00
2023-01-23T17:07:19.338Z,102248.00
2023-01-23T17:09:48.460Z,102253.00
2023-01-23T17:12:18.364Z,102248.00
2023-01-23T17:14:47.768Z,102245.00
2023-01-23T17:17:19.272Z,102243.00
2023-01-23T17:19:47.323Z,102233.00
2023-01-23T17:22:22.045Z,102240.00
2023-01-23T17:24:49.491Z,102240.00
2023-01-23T17:27:16.826Z,102246.00
2023-01-23T17:29:44.146Z,102249.00
2023-01-23T17:32:24.000Z,102239.00
2023-01-23T17:34:52.144Z,102252.00
2023-01-23T17:37:21.712Z,102260.00
2023-01-23T17:39:49.115Z,102257.00
2023-01-23T17:42:16.660Z,102255.00
2023-01-23T17:44:44.042Z,102254.00
2023-01-23T17:47:12.537Z,102256.00
2023-01-23T17:49:41.130Z,102264.00
2023-01-23T17:52:12.088Z,102254.00
2023-01-23T17:54:39.619Z,102262.00
2023-01-23T17:57:07.195Z,102255.00
2023-01-23T17:59:34.438Z,102248.00
2023-01-23T18:02:05.998Z,102249.00
2023-01-23T18:04:33.716Z,102257.00
2023-01-23T18:07:01.049Z,102246.00
2023-01-23T18:09:29.019Z,102248.00
2023-01-23T18:11:58.333Z,102264.00
2023-01-23T18:14:35.374Z,102252.00
2023-01-23T18:17:13.098Z,102261.00
2023-01-23T18:19:40.869Z,102260.00
2023-01-23T18:22:14.515Z,102251.00
2023-01-23T18:24:43.205Z,102255.00
2023-01-23T18:27:19.983Z,102257.00
2023-01-23T18:30:01.816Z,102248.00
2023-01-23T18:32:57.896Z,102254.00
2023-01-23T18:35:32.712Z,102254.00
2023-01-23T18:38:07.914Z,102261.00
2023-01-23T18:40:42.326Z,102246.00
2023-01-23T18:43:20.207Z,102258.00
2023-01-23T18:45:48.233Z,102250.00
2023-01-23T18:48:25.015Z,102255.00
2023-01-23T18:51:05.899Z,102261.00
2023-01-23T18:53:45.572Z,102254.00
2023-01-23T18:56:22.064Z,102254.00
2023-01-23T18:59:11.209Z,102247.00
2023-01-23T19:01:44.419Z,102250.00
2023-01-23T19:04:13.719Z,102253.00
2023-01-23T19:06:42.128Z,102255.00
2023-01-23T19:09:22.104Z,102253.00
2023-01-23T19:12:01.708Z,102247.00
2023-01-23T19:14:58.447Z,102250.00
2023-01-23T19:17:39.820Z,102263.00
2023-01-23T19:20:22.129Z,102256.00
2023-01-23T19:23:00.100Z,102259.00
2023-01-23T19:25:28.172Z,102259.00
2023-01-23T19:27:57.699Z,102261.00
2023-01-23T19:30:25.911Z,102270.00
2023-01-23T19:32:53.575Z,102271.00
2023-01-23T19:35:22.393Z,102275.00
2023-01-23T19:37:50.055Z,102259.00
2023-01-23T19:40:17.784Z,102260.00
2023-01-23T19:42:56.249Z,102265.00
2023-01-23T19:45:29.616Z,102266.00
2023-01-23T19:47:58.398Z,102262.00
2023-01-23T19:50:25.815Z,102274.00
2023-01-23T19:52:54.461Z,102268.00
2023-01-23T19:55:25.625Z,102277.00
2023-01-23T19:57:53.365Z,102279.00
2023-01-23T20:00:21.181Z,102286.00
2023-01-23T20:02:49.369Z,102277.00
2023-01-23T20:05:16.948Z,102279.00
2023-01-23T20:07:44.382Z,102285.00
2023-01-23T20:10:12.402Z,102295.00
2023-01-23T20:12:41.525Z,102295.00
2023-01-23T20:15:11.215Z,102294.00
2023-01-23T20:17:38.906Z,102276.00
2023-01-23T20:20:11.626Z,102289.00
2023-01-23T20:22:40.047Z,102281.00
2023-01-23T20:25:08.851Z,102279.00
2023-01-23T20:27:39.061Z,102279.00
2023-01-23T20:30:11.157Z,102282.00
2023-01-23T20:32:38.430Z,102282.00
2023-01-23T20:35:10.721Z,102277.00
2023-01-23T20:37:40.812Z,102282.00
2023-01-23T20:40:10.114Z,102279.00
2023-01-23T20:42:37.551Z,102267.00
2023-01-23T20:45:06.169Z,102275.00
2023-01-23T20:47:36.569Z,102279.00
2023-01-23T20:50:06.982Z,102274.00
2023-01-23T20:52:53.541Z,102275.00
2023-01-23T20:55:21.225Z,102281.00
2023-01-23T20:58:06.709Z,102272.00
2023-01-23T21:00:34.032Z,102273.00
2023-01-23T21:03:01.399Z,102279.00
2023-01-23T21:05:31.049Z,102275.00
2023-01-23T21:07:59.059Z,102273.00
2023-01-23T21:10:31.725Z,102274.00
2023-01-23T21:12:59.034Z,102273.00
2023-01-23T21:15:30.403Z,102286.00
2023-01-23T21:18:01.653Z,102278.00
2023-01-23T21:20:28.894Z,102282.00
2023-01-23T21:22:58.539Z,102281.00
2023-01-23T21:25:25.903Z,102284.00
2023-01-23T21:27:56.140Z,102294.00
2023-01-23T21:30:25.466Z,102290.00
2023-01-23T21:32:54.909Z,102284.00
2023-01-23T21:35:22.485Z,102287.00
2023-01-23T21:37:53.001Z,102287.00
2023-01-23T21:40:23.794Z,102280.00
2023-01-23T21:42:51.101Z,102290.00
2023-01-23T21:45:21.053Z,102288.00
2023-01-23T21:47:48.511Z,102293.00
2023-01-23T21:50:17.526Z,102299.00
2023-01-23T21:52:44.894Z,102299.00
2023-01-23T21:55:12.209Z,102288.00
2023-01-23T21:57:40.336Z,102288.00
2023-01-23T22:00:27.274Z,102290.00
2023-01-23T22:02:54.608Z,102290.00
2023-01-23T22:05:22.115Z,102290.00
2023-01-23T22:07:49.983Z,102292.00
2023-01-23T22:10:17.376Z,102296.00
2023-01-23T22:12:45.409Z,102299.00
2023-01-23T22:15:12.773Z,102298.00
2023-01-23T22:17:39.966Z,102292.00
2023-01-23T22:20:08.910Z,102292.00
2023-01-23T22:22:36.153Z,102303.00
2023-01-23T22:25:03.564Z,102305.00
2023-01-23T22:27:30.810Z,102296.00
2023-01-23T22:29:58.771Z,102293.00
2023-01-23T22:32:26.096Z,102297.00
2023-01-23T22:34:53.773Z,102304.00
2023-01-23T22:37:22.182Z,102298.00
2023-01-23T22:39:50.115Z,102301.00
2023-01-23T22:42:18.322Z,102294.00
2023-01-23T22:44:45.569Z,102290.00
2023-01-23T22:47:13.580Z,102284.00
2023-01-23T22:49:42.833Z,102282.00
2023-01-23T22:52:10.165Z,102286.00
2023-01-23T22:54:37.379Z,102288.00
2023-01-23T22:57:04.646Z,102291.00
2023-01-23T22:59:31.921Z,102283.00
2023-01-23T23:01:59.232Z,102278.00
2023-01-23T23:05:04.121Z,102286.00
2023-01-23T23:07:31.459Z,102277.00
2023-01-23T23:09:58.714Z,102271.00
2023-01-23T23:12:27.783Z,102281.00
2023-01-23T23:14:55.125Z,102278.00
2023-01-23T23:17:22.531Z,102276.00
2023-01-23T23:19:49.816Z,102284.00
2023-01-23T23:22:17.787Z,102283.00
2023-01-23T23:24:45.020Z,102283.00
2023-01-23T23:27:12.335Z,102271.00
2023-01-23T23:29:39.643Z,102274.00
2023-01-23T23:32:06.972Z,102273.00
2023-01-23T23:34:36.184Z,102274.00
2023-01-23T23:37:03.659Z,102276.00
2023-01-23T23:39:31.555Z,102284.00
2023-01-23T23:41:58.843Z,102282.00
2023-01-23T23:44:26.085Z,102287.00
2023-01-23T23:46:54.447Z,102284.00
2023-01-23T23:49:22.170Z,102277.00
2023-01-23T23:51:49.428Z,102277.00
2023-01-23T23:54:16.681Z,102285.00
2023-01-23T23:56:44.600Z,102285.00
2023-01-23T23:59:15.062Z,102288.00
